Time,TemperatureF,DewpointF,PressureIn,WindDirection,WindDirectionDegrees,WindSpeedMPH,WindSpeedGustMPH,Humidity,HourlyPrecipIn,Conditions,Clouds,dailyrainin,SoftwareType,DateUTC
2013-01-11 00:00:00,44.6,44.6,29.78,SSE,151,7.0,9.0,100,0.00,RA,RA,0.00,WeatherDisplay:10.37,2013-01-11 06:00:00,
2013-01-11 00:06:00,44.6,44.6,29.78,SE,143,9.0,12.0,100,0.00,RA,RA,0.00,WeatherDisplay:10.37,2013-01-11 06:06:00,
2013-01-11 00:12:00,44.6,44.6,29.78,SE,143,8.0,9.0,100,0.00,CLR,CLR,0.00,WeatherDisplay:10.37,2013-01-11 06:12:00,
2013-01-11 00:18:00,44.6,44.6,29.78,SE,144,8.0,12.0,100,0.00,CLR,CLR,0.00,WeatherDisplay:10.37,2013-01-11 06:18:00,
2013-01-11 00:24:00,44.6,44.6,29.78,SE,146,9.0,12.0,100,0.00,CLR,CLR,0.00,WeatherDisplay:10.37,2013-01-11 06:24:00,
2013-01-11 00:30:00,44.4,44.4,29.77,SE,133,7.0,12.0,100,0.00,CLR,CLR,0.00,WeatherDisplay:10.37,2013-01-11 06:30:00,
2013-01-11 00:36:00,44.4,44.4,29.77,SE,145,8.0,12.0,100,0.00,CLR,CLR,0.00,WeatherDisplay:10.37,2013-01-11 06:36:00,
2013-01-11 00:42:00,44.4,44.4,29.77,South,178,9.0,16.0,100,0.00,CLR,CLR,0.00,WeatherDisplay:10.37,2013-01-11 06:42:00,
2013-01-11 00:48:00,44.4,44.4,29.77,SSE,161,9.0,15.0,100,0.00,CLR,CLR,0.00,WeatherDisplay:10.37,2013-01-11 06:48:00,
2013-01-11 00:54:00,44.4,44.4,29.77,ESE,103,9.0,10.0,100,0.00,CLR,CLR,0.00,WeatherDisplay:10.37,2013-01-11 06:54:00,
2013-01-11 01:00:00,44.4,44.4,29.77,South,170,8.0,12.0,100,0.00,CLR,CLR,0.00,WeatherDisplay:10.37,2013-01-11 07:00:00,
2013-01-11 01:06:00,44.4,44.4,29.77,SSE,165,8.0,8.0,100,0.00,CLR,CLR,0.00,WeatherDisplay:10.37,2013-01-11 07:06:00,
2013-01-11 01:12:00,44.4,44.4,29.77,SSE,147,7.0,10.0,100,0.00,CLR,CLR,0.00,WeatherDisplay:10.37,2013-01-11 07:12:00,
2013-01-11 01:18:00,44.4,44.4,29.75,South,170,8.0,10.0,100,0.00,CLR,CLR,0.00,WeatherDisplay:10.37,2013-01-11 07:18:00,
2013-01-11 01:24:00,44.4,44.4,29.75,SE,146,8.0,13.0,100,0.00,CLR,CLR,0.00,WeatherDisplay:10.37,2013-01-11 07:24:00,
2013-01-11 01:30:00,44.4,44.4,29.75,SSE,156,13.0,14.0,100,0.00,CLR,CLR,0.00,WeatherDisplay:10.37,2013-01-11 07:30:00,
2013-01-11 01:36:00,44.6,44.6,29.75,SE,144,10.0,16.0,100,0.00,CLR,CLR,0.00,WeatherDisplay:10.37,2013-01-11 07:36:00,
2013-01-11 01:42:00,44.6,44.6,29.75,SE,145,6.0,9.0,100,0.00,CLR,CLR,0.00,WeatherDisplay:10.37,2013-01-11 07:42:00,
2013-01-11 01:48:00,44.6,44.6,29.75,SSE,158,9.0,15.0,100,0.00,CLR,CLR,0.00,WeatherDisplay:10.37,2013-01-11 07:48:00,
2013-01-11 01:54:00,44.6,44.6,29.74,SSE,167,9.0,12.0,100,0.00,CLR,CLR,0.00,WeatherDisplay:10.37,2013-01-11 07:54:00,
2013-01-11 02:00:00,44.8,44.8,29.74,SSE,161,10.0,15.0,100,0.00,CLR,CLR,0.00,WeatherDisplay:10.37,2013-01-11 08:00:00,
2013-01-11 02:06:00,44.8,44.8,29.74,SSE,155,8.0,12.0,100,0.00,OVC,OVC,0.00,WeatherDisplay:10.37,2013-01-11 08:06:00,
2013-01-11 02:12:00,44.8,44.8,29.74,SSE,153,7.0,12.0,100,0.00,OVC,OVC,0.00,WeatherDisplay:10.37,2013-01-11 08:12:00,
2013-01-11 02:18:00,44.8,44.8,29.74,South,171,9.0,12.0,100,0.00,OVC,OVC,0.00,WeatherDisplay:10.37,2013-01-11 08:18:00,
2013-01-11 02:24:00,45.0,45.0,29.74,SSE,147,8.0,12.0,100,0.00,OVC,OVC,0.00,WeatherDisplay:10.37,2013-01-11 08:24:00,
2013-01-11 02:30:00,45.0,45.0,29.72,SSE,160,8.0,13.0,100,0.00,OVC,OVC,0.00,WeatherDisplay:10.37,2013-01-11 08:30:00,
2013-01-11 02:36:00,45.0,45.0,29.72,South,172,10.0,13.0,100,0.00,OVC,OVC,0.00,WeatherDisplay:10.37,2013-01-11 08:36:00,
2013-01-11 02:42:00,45.0,45.0,29.72,SSE,165,9.0,12.0,100,0.00,OVC,OVC,0.00,WeatherDisplay:10.37,2013-01-11 08:42:00,
2013-01-11 02:48:00,45.0,45.0,29.72,SSE,147,9.0,14.0,100,0.00,OVC,OVC,0.00,WeatherDisplay:10.37,2013-01-11 08:48:00,
2013-01-11 02:54:00,45.0,45.0,29.71,SSE,160,9.0,16.0,100,0.00,OVC,OVC,0.00,WeatherDisplay:10.37,2013-01-11 08:54:00,
2013-01-11 03:00:00,45.0,45.0,29.71,SE,141,10.0,14.0,100,0.00,OVC,OVC,0.00,WeatherDisplay:10.37,2013-01-11 09:00:00,
2013-01-11 03:06:00,45.1,45.1,29.72,SSE,164,14.0,14.0,100,0.00,OVC,OVC,0.00,WeatherDisplay:10.37,2013-01-11 09:06:00,
2013-01-11 03:12:00,45.1,45.1,29.71,South,178,13.0,14.0,100,0.00,OVC,OVC,0.00,WeatherDisplay:10.37,2013-01-11 09:12:00,
2013-01-11 03:18:00,45.1,45.1,29.70,SSE,166,8.0,19.0,100,0.00,OVC,OVC,0.00,WeatherDisplay:10.37,2013-01-11 09:18:00,
2013-01-11 03:24:00,45.1,45.1,29.70,SSE,163,9.0,14.0,100,0.00,OVC,OVC,0.00,WeatherDisplay:10.37,2013-01-11 09:24:00,
2013-01-11 03:30:00,45.1,45.1,29.70,SSE,165,10.0,15.0,100,0.00,OVC,OVC,0.00,WeatherDisplay:10.37,2013-01-11 09:30:00,
2013-01-11 03:36:00,45.1,45.1,29.70,SE,142,8.0,14.0,100,0.00,OVC,OVC,0.00,WeatherDisplay:10.37,2013-01-11 09:36:00,
2013-01-11 03:42:00,45.1,45.1,29.69,SE,146,8.0,14.0,100,0.00,OVC,OVC,0.00,WeatherDisplay:10.37,2013-01-11 09:42:00,
2013-01-11 03:48:00,45.1,45.1,29.68,SSE,147,10.0,15.0,100,0.00,OVC,OVC,0.00,WeatherDisplay:10.37,2013-01-11 09:48:00,
2013-01-11 03:54:00,45.1,45.1,29.68,SSE,152,13.0,18.0,100,0.00,OVC,OVC,0.00,WeatherDisplay:10.37,2013-01-11 09:54:00,
2013-01-11 04:00:00,45.1,45.1,29.68,SSE,151,8.0,19.0,100,0.00,OVC,OVC,0.00,WeatherDisplay:10.37,2013-01-11 10:00:00,
2013-01-11 04:06:00,45.1,45.1,29.69,SSE,155,9.0,12.0,100,0.00,OVC,OVC,0.00,WeatherDisplay:10.37,2013-01-11 10:06:00,
2013-01-11 04:12:00,45.1,45.1,29.69,SSE,161,8.0,12.0,100,0.00,OVC,OVC,0.00,WeatherDisplay:10.37,2013-01-11 10:12:00,
2013-01-11 04:18:00,45.1,45.1,29.67,SE,140,6.0,15.0,100,0.00,OVC,OVC,0.00,WeatherDisplay:10.37,2013-01-11 10:18:00,
2013-01-11 04:24:00,45.1,45.1,29.67,SSE,151,10.0,18.0,100,0.00,OVC,OVC,0.00,WeatherDisplay:10.37,2013-01-11 10:24:00,
2013-01-11 04:30:00,45.0,45.0,29.67,SSE,157,14.0,16.0,100,0.00,OVC,OVC,0.00,WeatherDisplay:10.37,2013-01-11 10:30:00,
2013-01-11 04:36:00,45.0,45.0,29.67,SSE,161,12.0,18.0,100,0.00,OVC,OVC,0.00,WeatherDisplay:10.37,2013-01-11 10:36:00,
2013-01-11 04:42:00,44.8,44.8,29.67,SSE,158,13.0,16.0,100,0.00,OVC,OVC,0.00,WeatherDisplay:10.37,2013-01-11 10:42:00,
2013-01-11 04:48:00,44.8,44.8,29.67,SSE,160,12.0,14.0,100,0.00,OVC,OVC,0.00,WeatherDisplay:10.37,2013-01-11 10:48:00,
2013-01-11 04:54:00,44.8,44.8,29.66,SE,140,13.0,19.0,100,0.00,OVC,OVC,0.00,WeatherDisplay:10.37,2013-01-11 10:54:00,
2013-01-11 05:00:00,44.6,44.6,29.66,SE,140,14.0,16.0,100,0.00,OVC,OVC,0.00,WeatherDisplay:10.37,2013-01-11 11:00:00,
2013-01-11 05:06:00,44.6,44.6,29.65,SSE,149,12.0,16.0,100,0.00,SCT,SCT,0.00,WeatherDisplay:10.37,2013-01-11 11:06:00,
2013-01-11 05:12:00,44.8,44.5,29.65,SSE,158,7.0,13.0,99,0.00,SCT,SCT,0.00,WeatherDisplay:10.37,2013-01-11 11:12:00,
2013-01-11 05:18:00,44.8,44.5,29.64,SSE,164,13.0,18.0,99,0.00,SCT,SCT,0.00,WeatherDisplay:10.37,2013-01-11 11:18:00,
2013-01-11 05:24:00,44.8,44.5,29.64,SSE,153,14.0,20.0,99,0.00,SCT,SCT,0.00,WeatherDisplay:10.37,2013-01-11 11:24:00,
2013-01-11 05:30:00,45.0,44.7,29.63,SSE,160,13.0,15.0,99,0.00,SCT,SCT,0.00,WeatherDisplay:10.37,2013-01-11 11:30:00,
2013-01-11 05:36:00,45.0,44.7,29.63,SSE,160,16.0,17.0,99,0.00,SCT,SCT,0.00,WeatherDisplay:10.37,2013-01-11 11:36:00,
2013-01-11 05:42:00,45.0,44.7,29.64,SSE,156,14.0,16.0,99,0.00,SCT,SCT,0.00,WeatherDisplay:10.37,2013-01-11 11:42:00,
2013-01-11 05:48:00,45.0,44.7,29.64,SSE,167,16.0,23.0,99,0.00,SCT,SCT,0.00,WeatherDisplay:10.37,2013-01-11 11:48:00,
2013-01-11 05:54:00,45.0,44.5,29.62,SSE,164,12.0,19.0,98,0.00,SCT,SCT,0.00,WeatherDisplay:10.37,2013-01-11 11:54:00,
2013-01-11 06:00:00,45.1,44.6,29.62,SSE,155,15.0,21.0,98,0.00,SCT,SCT,0.00,WeatherDisplay:10.37,2013-01-11 12:00:00,
2013-01-11 06:06:00,45.1,44.6,29.63,SSE,149,10.0,16.0,98,0.00,SCT,SCT,0.00,WeatherDisplay:10.37,2013-01-11 12:06:00,
2013-01-11 06:12:00,45.1,44.6,29.63,SSE,156,10.0,15.0,98,0.00,SCT,SCT,0.00,WeatherDisplay:10.37,2013-01-11 12:12:00,
2013-01-11 06:18:00,45.1,44.6,29.63,SSE,165,10.0,18.0,98,0.00,SCT,SCT,0.00,WeatherDisplay:10.37,2013-01-11 12:18:00,
2013-01-11 06:24:00,45.1,44.6,29.63,SSE,162,10.0,16.0,98,0.00,SCT,SCT,0.00,WeatherDisplay:10.37,2013-01-11 12:24:00,
2013-01-11 06:30:00,45.1,44.6,29.64,SSE,152,10.0,14.0,98,0.00,SCT,SCT,0.00,WeatherDisplay:10.37,2013-01-11 12:30:00,
2013-01-11 06:36:00,45.0,44.5,29.64,SSE,163,12.0,14.0,98,0.00,SCT,SCT,0.00,WeatherDisplay:10.37,2013-01-11 12:36:00,
2013-01-11 06:42:00,45.0,44.5,29.64,SSE,151,12.0,17.0,98,0.00,SCT,SCT,0.00,WeatherDisplay:10.37,2013-01-11 12:42:00,
2013-01-11 06:48:00,45.0,44.5,29.64,SSE,152,13.0,17.0,98,0.00,SCT,SCT,0.00,WeatherDisplay:10.37,2013-01-11 12:48:00,
2013-01-11 06:54:00,45.0,44.5,29.65,SSE,163,13.0,17.0,98,0.00,SCT,SCT,0.00,WeatherDisplay:10.37,2013-01-11 12:54:00,
2013-01-11 07:00:00,44.8,44.3,29.65,SSE,158,12.0,16.0,98,0.00,SCT,SCT,0.00,WeatherDisplay:10.37,2013-01-11 13:00:00,
2013-01-11 07:06:00,44.8,43.7,29.64,SSE,156,14.0,17.0,96,0.00,BKN,BKN,0.00,WeatherDisplay:10.37,2013-01-11 13:06:00,
2013-01-11 07:12:00,44.7,43.6,29.64,South,170,8.0,15.0,96,0.00,BKN,BKN,0.00,WeatherDisplay:10.37,2013-01-11 13:12:00,
2013-01-11 07:18:00,44.8,43.7,29.64,SSE,160,15.0,16.0,96,0.00,BKN,BKN,0.00,WeatherDisplay:10.37,2013-01-11 13:18:00,
2013-01-11 07:24:00,44.8,43.7,29.64,SE,136,9.0,15.0,96,0.00,BKN,BKN,0.00,WeatherDisplay:10.37,2013-01-11 13:24:00,
2013-01-11 07:30:00,45.0,43.9,29.64,SE,145,12.0,17.0,96,0.00,BKN,BKN,0.00,WeatherDisplay:10.37,2013-01-11 13:30:00,
2013-01-11 07:36:00,45.1,44.0,29.64,SSE,152,10.0,18.0,96,0.00,BKN,BKN,0.00,WeatherDisplay:10.37,2013-01-11 13:36:00,
2013-01-11 07:42:00,45.1,43.8,29.65,SSE,167,10.0,14.0,95,0.00,BKN,BKN,0.00,WeatherDisplay:10.37,2013-01-11 13:42:00,
2013-01-11 07:48:00,45.3,44.0,29.65,SSE,156,12.0,17.0,95,0.00,BKN,BKN,0.00,WeatherDisplay:10.37,2013-01-11 13:48:00,
2013-01-11 07:54:00,45.3,44.0,29.65,South,181,9.0,15.0,95,0.00,BKN,BKN,0.00,WeatherDisplay:10.37,2013-01-11 13:54:00,
2013-01-11 08:00:00,45.3,44.0,29.65,South,180,12.0,18.0,95,0.00,BKN,BKN,0.00,WeatherDisplay:10.37,2013-01-11 14:00:00,
2013-01-11 08:06:00,45.5,44.2,29.65,SSE,162,10.0,14.0,95,0.00,BKN,BKN,0.00,WeatherDisplay:10.37,2013-01-11 14:06:00,
2013-01-11 08:12:00,45.5,44.2,29.66,SSE,168,13.0,22.0,95,0.00,BKN,BKN,0.00,WeatherDisplay:10.37,2013-01-11 14:12:00,
2013-01-11 08:18:00,45.7,44.1,29.66,SSE,152,9.0,16.0,94,0.00,BKN,BKN,0.00,WeatherDisplay:10.37,2013-01-11 14:18:00,
2013-01-11 08:24:00,45.9,44.3,29.66,SSE,157,9.0,16.0,94,0.00,BKN,BKN,0.00,WeatherDisplay:10.37,2013-01-11 14:24:00,
2013-01-11 08:30:00,45.9,44.3,29.66,SSE,156,13.0,17.0,94,0.00,BKN,BKN,0.00,WeatherDisplay:10.37,2013-01-11 14:30:00,
2013-01-11 08:36:00,46.2,44.3,29.66,SSE,162,9.0,17.0,93,0.00,BKN,BKN,0.00,WeatherDisplay:10.37,2013-01-11 14:36:00,
2013-01-11 08:42:00,46.2,44.3,29.66,SE,124,7.0,7.0,93,0.00,BKN,BKN,0.00,WeatherDisplay:10.37,2013-01-11 14:42:00,
2013-01-11 08:48:00,46.2,44.3,29.66,ESE,112,7.0,7.0,93,0.00,BKN,BKN,0.00,WeatherDisplay:10.37,2013-01-11 14:48:00,
2013-01-11 08:54:00,46.2,44.3,29.66,ESE,112,7.0,7.0,93,0.00,BKN,BKN,0.00,WeatherDisplay:10.37,2013-01-11 14:54:00,
2013-01-11 09:00:00,46.2,44.3,29.66,ESE,112,7.0,7.0,93,0.00,BKN,BKN,0.00,WeatherDisplay:10.37,2013-01-11 15:00:00,
2013-01-11 09:06:00,46.6,44.4,29.67,SE,137,9.0,15.0,92,0.00,BKN,BKN,0.00,WeatherDisplay:10.37,2013-01-11 15:06:00,
2013-01-11 09:12:00,46.6,44.4,29.67,SSE,165,12.0,18.0,92,0.00,BKN,BKN,0.00,WeatherDisplay:10.37,2013-01-11 15:12:00,
2013-01-11 09:18:00,46.8,44.6,29.67,South,170,12.0,14.0,92,0.00,BKN,BKN,0.00,WeatherDisplay:10.37,2013-01-11 15:18:00,
2013-01-11 09:24:00,46.9,44.7,29.67,SSE,162,9.0,10.0,92,0.00,BKN,BKN,0.00,WeatherDisplay:10.37,2013-01-11 15:24:00,
2013-01-11 09:30:00,46.9,44.4,29.67,SSE,161,13.0,16.0,91,0.00,BKN,BKN,0.00,WeatherDisplay:10.37,2013-01-11 15:30:00,
2013-01-11 09:36:00,47.1,44.6,29.66,SSE,156,10.0,20.0,91,0.00,BKN,BKN,0.00,WeatherDisplay:10.37,2013-01-11 15:36:00,
2013-01-11 09:42:00,47.3,44.8,29.66,SSE,158,12.0,14.0,91,0.00,BKN,BKN,0.00,WeatherDisplay:10.37,2013-01-11 15:42:00,
2013-01-11 09:48:00,47.5,45.0,29.66,SSE,153,15.0,22.0,91,0.00,BKN,BKN,0.00,WeatherDisplay:10.37,2013-01-11 15:48:00,
2013-01-11 09:54:00,48.2,45.1,29.66,SSE,147,10.0,16.0,89,0.00,BKN,BKN,0.00,WeatherDisplay:10.37,2013-01-11 15:54:00,
2013-01-11 10:00:00,49.1,45.4,29.66,SSE,150,16.0,17.0,87,0.00,BKN,BKN,0.00,WeatherDisplay:10.37,2013-01-11 16:00:00,
2013-01-11 10:06:00,49.6,45.3,29.66,SE,146,18.0,23.0,85,0.00,OVC,OVC,0.00,WeatherDisplay:10.37,2013-01-11 16:06:00,
2013-01-11 10:12:00,49.6,45.3,29.66,SE,131,12.0,17.0,85,0.00,OVC,OVC,0.00,WeatherDisplay:10.37,2013-01-11 16:12:00,
2013-01-11 10:18:00,49.6,45.3,29.66,SSE,156,9.0,18.0,85,0.00,OVC,OVC,0.00,WeatherDisplay:10.37,2013-01-11 16:18:00,
2013-01-11 10:24:00,49.8,45.5,29.66,SSE,160,12.0,21.0,85,0.00,OVC,OVC,0.00,WeatherDisplay:10.37,2013-01-11 16:24:00,
2013-01-11 10:30:00,50.2,45.6,29.65,SSE,157,13.0,19.0,84,0.00,OVC,OVC,0.00,WeatherDisplay:10.37,2013-01-11 16:30:00,
2013-01-11 10:36:00,50.5,45.2,29.66,South,172,15.0,24.0,82,0.00,OVC,OVC,0.00,WeatherDisplay:10.37,2013-01-11 16:36:00,
2013-01-11 10:42:00,50.5,45.8,29.66,SSE,155,12.0,15.0,84,0.00,OVC,OVC,0.00,WeatherDisplay:10.37,2013-01-11 16:42:00,
2013-01-11 10:48:00,50.7,45.4,29.66,SSE,154,14.0,22.0,82,0.00,OVC,OVC,0.00,WeatherDisplay:10.37,2013-01-11 16:48:00,
2013-01-11 10:54:00,50.9,45.3,29.64,SSE,159,10.0,12.0,81,0.00,RA,RA,0.01,WeatherDisplay:10.37,2013-01-11 16:54:00,
2013-01-11 11:00:00,51.6,45.6,29.64,SSE,167,9.0,14.0,80,0.00,OVC,OVC,0.01,WeatherDisplay:10.37,2013-01-11 17:00:00,
2013-01-11 11:06:00,52.0,45.7,29.65,SSE,155,14.0,17.0,79,0.00,BKN,BKN,0.01,WeatherDisplay:10.37,2013-01-11 17:06:00,
2013-01-11 11:12:00,53.1,45.7,29.65,SSE,154,16.0,23.0,76,0.00,BKN,BKN,0.01,WeatherDisplay:10.37,2013-01-11 17:12:00,
2013-01-11 11:18:00,53.8,45.3,29.65,SSE,164,21.0,25.0,73,0.00,BKN,BKN,0.01,WeatherDisplay:10.37,2013-01-11 17:18:00,
2013-01-11 11:24:00,54.3,45.5,29.64,SSE,150,21.0,30.0,72,0.00,BKN,BKN,0.01,WeatherDisplay:10.37,2013-01-11 17:24:00,
2013-01-11 11:30:00,53.8,45.3,29.64,SSE,156,14.0,18.0,73,0.00,BKN,BKN,0.01,WeatherDisplay:10.37,2013-01-11 17:30:00,
2013-01-11 11:36:00,53.4,45.0,29.64,SE,135,13.0,20.0,73,0.00,BKN,BKN,0.01,WeatherDisplay:10.37,2013-01-11 17:36:00,
2013-01-11 11:42:00,53.6,45.9,29.63,SE,143,13.0,16.0,75,0.00,BKN,BKN,0.01,WeatherDisplay:10.37,2013-01-11 17:42:00,
2013-01-11 11:48:00,53.4,45.7,29.63,SSE,155,16.0,21.0,75,0.00,BKN,BKN,0.01,WeatherDisplay:10.37,2013-01-11 17:48:00,
2013-01-11 11:54:00,53.4,45.7,29.62,SE,144,14.0,25.0,75,0.00,BKN,BKN,0.01,WeatherDisplay:10.37,2013-01-11 17:54:00,
2013-01-11 12:00:00,53.4,46.0,29.62,SSE,158,10.0,16.0,76,0.00,BKN,BKN,0.01,WeatherDisplay:10.37,2013-01-11 18:00:00,
2013-01-11 12:06:00,53.5,46.1,29.61,SSE,155,8.0,14.0,76,0.00,OVC,OVC,0.01,WeatherDisplay:10.37,2013-01-11 18:06:00,
2013-01-11 12:12:00,53.6,46.2,29.61,SSE,151,14.0,19.0,76,0.00,OVC,OVC,0.01,WeatherDisplay:10.37,2013-01-11 18:12:00,
2013-01-11 12:18:00,53.8,46.1,29.61,SSE,161,12.0,23.0,75,0.00,OVC,OVC,0.01,WeatherDisplay:10.37,2013-01-11 18:18:00,
2013-01-11 12:24:00,53.8,46.1,29.60,South,180,13.0,19.0,75,0.00,OVC,OVC,0.01,WeatherDisplay:10.37,2013-01-11 18:24:00,
2013-01-11 12:30:00,53.6,46.2,29.60,SSE,165,13.0,19.0,76,0.00,OVC,OVC,0.01,WeatherDisplay:10.37,2013-01-11 18:30:00,
2013-01-11 12:36:00,53.4,46.4,29.60,South,169,13.0,21.0,77,0.00,OVC,OVC,0.01,WeatherDisplay:10.37,2013-01-11 18:36:00,
2013-01-11 12:42:00,53.4,46.4,29.60,SSE,163,12.0,17.0,77,0.00,OVC,OVC,0.01,WeatherDisplay:10.37,2013-01-11 18:42:00,
2013-01-11 12:48:00,53.6,46.9,29.60,South,182,12.0,14.0,78,0.00,OVC,OVC,0.01,WeatherDisplay:10.37,2013-01-11 18:48:00,
2013-01-11 12:54:00,53.8,47.1,29.58,SE,137,8.0,13.0,78,0.00,OVC,OVC,0.01,WeatherDisplay:10.37,2013-01-11 18:54:00,
2013-01-11 13:00:00,54.1,46.7,29.58,SSW,198,15.0,17.0,76,0.00,OVC,OVC,0.01,WeatherDisplay:10.37,2013-01-11 19:00:00,
2013-01-11 13:06:00,54.3,46.9,29.58,South,173,9.0,14.0,76,0.00,BKN,BKN,0.01,WeatherDisplay:10.37,2013-01-11 19:06:00,
2013-01-11 13:12:00,54.3,46.9,29.58,SE,145,8.0,14.0,76,0.00,BKN,BKN,0.01,WeatherDisplay:10.37,2013-01-11 19:12:00,
2013-01-11 13:18:00,54.5,47.4,29.58,SE,127,8.0,14.0,77,0.00,BKN,BKN,0.01,WeatherDisplay:10.37,2013-01-11 19:18:00,
2013-01-11 13:24:00,54.3,47.2,29.58,East,90,15.0,18.0,77,0.00,BKN,BKN,0.01,WeatherDisplay:10.37,2013-01-11 19:24:00,
2013-01-11 13:30:00,54.3,47.2,29.58,SSE,152,12.0,14.0,77,0.00,BKN,BKN,0.01,WeatherDisplay:10.37,2013-01-11 19:30:00,
2013-01-11 13:36:00,54.3,47.2,29.58,SSE,147,10.0,14.0,77,0.00,BKN,BKN,0.01,WeatherDisplay:10.37,2013-01-11 19:36:00,
2013-01-11 13:42:00,54.3,47.2,29.58,SE,135,12.0,18.0,77,0.00,BKN,BKN,0.01,WeatherDisplay:10.37,2013-01-11 19:42:00,
2013-01-11 13:48:00,54.5,47.4,29.58,SSE,163,8.0,10.0,77,0.00,BKN,BKN,0.01,WeatherDisplay:10.37,2013-01-11 19:48:00,
2013-01-11 13:54:00,54.5,47.4,29.57,SE,142,14.0,18.0,77,0.00,BKN,BKN,0.01,WeatherDisplay:10.37,2013-01-11 19:54:00,
2013-01-11 14:00:00,54.9,47.8,29.57,SE,124,13.0,15.0,77,0.00,BKN,BKN,0.01,WeatherDisplay:10.37,2013-01-11 20:00:00,
2013-01-11 14:06:00,55.0,47.9,29.57,SSE,150,9.0,12.0,77,0.00,OVC,OVC,0.01,WeatherDisplay:10.37,2013-01-11 20:06:00,
2013-01-11 14:12:00,55.1,48.0,29.57,SSE,164,9.0,15.0,77,0.00,OVC,OVC,0.01,WeatherDisplay:10.37,2013-01-11 20:12:00,
2013-01-11 14:18:00,55.4,48.3,29.56,SSE,150,13.0,14.0,77,0.00,OVC,OVC,0.01,WeatherDisplay:10.37,2013-01-11 20:18:00,
2013-01-11 14:24:00,55.8,48.3,29.56,SSE,165,12.0,15.0,76,0.00,OVC,OVC,0.01,WeatherDisplay:10.37,2013-01-11 20:24:00,
2013-01-11 14:30:00,55.9,48.4,29.57,SSE,153,16.0,21.0,76,0.00,OVC,OVC,0.01,WeatherDisplay:10.37,2013-01-11 20:30:00,
2013-01-11 14:36:00,56.1,48.6,29.57,SE,143,12.0,14.0,76,0.00,OVC,OVC,0.01,WeatherDisplay:10.37,2013-01-11 20:36:00,
2013-01-11 14:42:00,56.7,48.8,29.56,SSE,156,13.0,20.0,75,0.00,OVC,OVC,0.01,WeatherDisplay:10.37,2013-01-11 20:42:00,
2013-01-11 14:48:00,56.7,48.9,29.56,SSE,157,12.0,16.0,75,0.00,OVC,OVC,0.01,WeatherDisplay:10.37,2013-01-11 20:48:00,
2013-01-11 14:54:00,56.7,48.9,29.56,SSE,164,12.0,19.0,75,0.00,OVC,OVC,0.01,WeatherDisplay:10.37,2013-01-11 20:54:00,
2013-01-11 15:00:00,56.7,48.2,29.56,SSE,156,13.0,20.0,73,0.00,OVC,OVC,0.01,WeatherDisplay:10.37,2013-01-11 21:00:00,
2013-01-11 15:06:00,56.8,48.2,29.57,SSE,151,10.0,16.0,73,0.00,OVC,OVC,0.01,WeatherDisplay:10.37,2013-01-11 21:06:00,
2013-01-11 15:12:00,56.8,48.2,29.57,SE,143,10.0,13.0,73,0.00,OVC,OVC,0.01,WeatherDisplay:10.37,2013-01-11 21:12:00,
2013-01-11 15:18:00,56.8,48.2,29.57,SSE,156,9.0,12.0,73,0.00,OVC,OVC,0.01,WeatherDisplay:10.37,2013-01-11 21:18:00,
2013-01-11 15:24:00,56.8,48.2,29.57,SSE,154,12.0,15.0,73,0.00,OVC,OVC,0.01,WeatherDisplay:10.37,2013-01-11 21:24:00,
2013-01-11 15:30:00,57.0,48.4,29.57,SSE,154,13.0,16.0,73,0.00,OVC,OVC,0.01,WeatherDisplay:10.37,2013-01-11 21:30:00,
2013-01-11 15:36:00,57.2,48.3,29.57,SSE,147,13.0,16.0,72,0.00,OVC,OVC,0.01,WeatherDisplay:10.37,2013-01-11 21:36:00,
2013-01-11 15:42:00,57.0,48.1,29.57,SSE,151,9.0,16.0,72,0.00,OVC,OVC,0.01,WeatherDisplay:10.37,2013-01-11 21:42:00,
2013-01-11 15:48:00,57.0,48.1,29.57,SE,144,9.0,16.0,72,0.00,OVC,OVC,0.01,WeatherDisplay:10.37,2013-01-11 21:48:00,
2013-01-11 15:54:00,57.0,48.1,29.57,SE,145,8.0,10.0,72,0.00,OVC,OVC,0.01,WeatherDisplay:10.37,2013-01-11 21:54:00,
2013-01-11 16:00:00,57.4,48.4,29.57,SSE,165,8.0,13.0,72,0.00,OVC,OVC,0.01,WeatherDisplay:10.37,2013-01-11 22:00:00,
2013-01-11 16:06:00,57.7,48.4,29.57,SSE,154,12.0,15.0,71,0.00,OVC,OVC,0.01,WeatherDisplay:10.37,2013-01-11 22:06:00,
2013-01-11 16:12:00,58.1,48.4,29.57,SSE,166,12.0,16.0,70,0.00,OVC,OVC,0.01,WeatherDisplay:10.37,2013-01-11 22:12:00,
2013-01-11 16:18:00,58.5,48.7,29.57,South,173,9.0,12.0,70,0.00,OVC,OVC,0.01,WeatherDisplay:10.37,2013-01-11 22:18:00,
2013-01-11 16:24:00,58.5,48.7,29.57,South,179,9.0,14.0,70,0.00,OVC,OVC,0.01,WeatherDisplay:10.37,2013-01-11 22:24:00,
2013-01-11 16:30:00,58.6,48.8,29.58,SSE,151,12.0,18.0,70,0.00,OVC,OVC,0.01,WeatherDisplay:10.37,2013-01-11 22:30:00,
2013-01-11 16:36:00,59.0,49.2,29.58,SE,144,14.0,16.0,70,0.00,OVC,OVC,0.01,WeatherDisplay:10.37,2013-01-11 22:36:00,
2013-01-11 16:42:00,59.0,49.2,29.57,SSE,155,13.0,20.0,70,0.00,OVC,OVC,0.01,WeatherDisplay:10.37,2013-01-11 22:42:00,
2013-01-11 16:48:00,59.2,49.0,29.57,SSE,158,14.0,15.0,69,0.00,OVC,OVC,0.01,WeatherDisplay:10.37,2013-01-11 22:48:00,
2013-01-11 16:54:00,59.2,48.6,29.57,SSE,161,16.0,19.0,68,0.00,OVC,OVC,0.01,WeatherDisplay:10.37,2013-01-11 22:54:00,
2013-01-11 17:00:00,59.2,48.6,29.57,SSE,159,13.0,16.0,68,0.00,OVC,OVC,0.01,WeatherDisplay:10.37,2013-01-11 23:00:00,
2013-01-11 17:06:00,59.0,48.4,29.58,South,179,13.0,16.0,68,0.00,BKN,BKN,0.01,WeatherDisplay:10.37,2013-01-11 23:06:00,
2013-01-11 17:12:00,59.0,48.4,29.58,SSE,158,10.0,15.0,68,0.00,BKN,BKN,0.01,WeatherDisplay:10.37,2013-01-11 23:12:00,
2013-01-11 17:18:00,59.0,48.4,29.58,South,189,9.0,16.0,68,0.00,BKN,BKN,0.01,WeatherDisplay:10.37,2013-01-11 23:18:00,
2013-01-11 17:24:00,59.0,48.4,29.58,South,170,8.0,18.0,68,0.00,BKN,BKN,0.01,WeatherDisplay:10.37,2013-01-11 23:24:00,
2013-01-11 17:30:00,59.0,48.4,29.59,SSE,161,12.0,15.0,68,0.00,BKN,BKN,0.01,WeatherDisplay:10.37,2013-01-11 23:30:00,
2013-01-11 17:36:00,58.6,48.1,29.59,SE,143,8.0,14.0,68,0.00,BKN,BKN,0.01,WeatherDisplay:10.37,2013-01-11 23:36:00,
2013-01-11 17:42:00,58.6,48.1,29.59,SE,133,10.0,18.0,68,0.00,BKN,BKN,0.01,WeatherDisplay:10.37,2013-01-11 23:42:00,
2013-01-11 17:48:00,58.6,48.1,29.59,SSE,154,8.0,18.0,68,0.00,BKN,BKN,0.01,WeatherDisplay:10.37,2013-01-11 23:48:00,
2013-01-11 17:54:00,58.5,48.4,29.59,SSE,154,12.0,14.0,69,0.00,BKN,BKN,0.01,WeatherDisplay:10.37,2013-01-11 23:54:00,
2013-01-11 18:00:00,58.6,48.5,29.59,SE,138,10.0,16.0,69,0.00,BKN,BKN,0.01,WeatherDisplay:10.37,2013-01-12 00:00:00,
2013-01-11 18:06:00,58.6,48.5,29.59,SSE,163,10.0,14.0,69,0.00,BKN,BKN,0.01,WeatherDisplay:10.37,2013-01-12 00:06:00,
2013-01-11 18:12:00,58.6,48.1,29.59,SSE,157,10.0,14.0,68,0.00,BKN,BKN,0.01,WeatherDisplay:10.37,2013-01-12 00:12:00,
2013-01-11 18:18:00,58.6,48.1,29.60,SSE,159,9.0,14.0,68,0.00,BKN,BKN,0.01,WeatherDisplay:10.37,2013-01-12 00:18:00,
2013-01-11 18:24:00,58.6,48.1,29.60,SSE,148,10.0,13.0,68,0.00,BKN,BKN,0.01,WeatherDisplay:10.37,2013-01-12 00:24:00,
2013-01-11 18:30:00,58.6,48.1,29.61,SSE,159,9.0,12.0,68,0.00,BKN,BKN,0.01,WeatherDisplay:10.37,2013-01-12 00:30:00,
2013-01-11 18:36:00,58.5,48.0,29.61,ESE,116,10.0,15.0,68,0.00,BKN,BKN,0.01,WeatherDisplay:10.37,2013-01-12 00:36:00,
2013-01-11 18:42:00,58.2,47.7,29.62,WSW,238,9.0,12.0,68,0.00,BKN,BKN,0.01,WeatherDisplay:10.37,2013-01-12 00:42:00,
2013-01-11 18:48:00,57.7,47.6,29.62,SSW,210,8.0,12.0,69,0.00,BKN,BKN,0.01,WeatherDisplay:10.37,2013-01-12 00:48:00,
2013-01-11 18:54:00,57.9,47.8,29.63,South,191,7.0,19.0,69,0.00,BKN,BKN,0.01,WeatherDisplay:10.37,2013-01-12 00:54:00,
2013-01-11 19:00:00,58.1,48.0,29.63,SSW,196,7.0,12.0,69,0.00,BKN,BKN,0.01,WeatherDisplay:10.37,2013-01-12 01:00:00,
2013-01-11 19:06:00,57.7,47.6,29.64,West,262,8.0,12.0,69,0.00,BKN,BKN,0.01,WeatherDisplay:10.37,2013-01-12 01:06:00,
2013-01-11 19:12:00,57.7,47.6,29.66,WSW,254,8.0,13.0,69,0.00,BKN,BKN,0.01,WeatherDisplay:10.37,2013-01-12 01:12:00,
2013-01-11 19:18:00,57.7,47.6,29.66,WSW,255,7.0,12.0,69,0.00,BKN,BKN,0.01,WeatherDisplay:10.37,2013-01-12 01:18:00,
2013-01-11 19:24:00,57.7,47.6,29.67,WSW,256,10.0,13.0,69,0.00,BKN,BKN,0.01,WeatherDisplay:10.37,2013-01-12 01:24:00,
2013-01-11 19:30:00,57.9,47.8,29.67,WNW,285,9.0,13.0,69,0.00,BKN,BKN,0.01,WeatherDisplay:10.37,2013-01-12 01:30:00,
2013-01-11 19:36:00,57.2,47.1,29.67,West,274,3.0,8.0,69,0.00,BKN,BKN,0.01,WeatherDisplay:10.37,2013-01-12 01:36:00,
2013-01-11 19:42:00,57.2,47.1,29.67,WSW,258,7.0,14.0,69,0.00,BKN,BKN,0.01,WeatherDisplay:10.37,2013-01-12 01:42:00,
2013-01-11 19:48:00,56.8,47.1,29.68,West,280,7.0,12.0,70,0.00,BKN,BKN,0.01,WeatherDisplay:10.37,2013-01-12 01:48:00,
2013-01-11 19:54:00,56.8,46.7,29.68,West,265,10.0,15.0,69,0.00,BKN,BKN,0.01,WeatherDisplay:10.37,2013-01-12 01:54:00,
2013-01-11 20:00:00,56.8,46.0,29.68,West,273,12.0,15.0,67,0.00,BKN,BKN,0.01,WeatherDisplay:10.37,2013-01-12 02:00:00,
2013-01-11 20:06:00,57.2,45.1,29.70,West,279,8.0,12.0,64,0.00,OVC,OVC,0.01,WeatherDisplay:10.37,2013-01-12 02:06:00,
2013-01-11 20:12:00,57.5,42.4,29.70,West,273,14.0,21.0,57,0.00,OVC,OVC,0.01,WeatherDisplay:10.37,2013-01-12 02:12:00,
2013-01-11 20:18:00,58.1,38.5,29.70,West,265,18.0,21.0,48,0.00,OVC,OVC,0.01,WeatherDisplay:10.37,2013-01-12 02:18:00,
2013-01-11 20:24:00,58.1,38.5,29.70,West,273,16.0,23.0,48,0.00,OVC,OVC,0.01,WeatherDisplay:10.37,2013-01-12 02:24:00,
2013-01-11 20:30:00,57.7,39.2,29.71,WNW,282,12.0,17.0,50,0.00,OVC,OVC,0.01,WeatherDisplay:10.37,2013-01-12 02:30:00,
2013-01-11 20:36:00,56.9,39.5,29.71,West,281,8.0,13.0,52,0.00,OVC,OVC,0.01,WeatherDisplay:10.37,2013-01-12 02:36:00,
2013-01-11 20:42:00,56.8,38.9,29.72,West,280,9.0,14.0,51,0.00,OVC,OVC,0.01,WeatherDisplay:10.37,2013-01-12 02:42:00,
2013-01-11 20:48:00,56.3,37.4,29.72,West,275,12.0,17.0,49,0.00,OVC,OVC,0.01,WeatherDisplay:10.37,2013-01-12 02:48:00,
2013-01-11 20:54:00,56.3,35.2,29.73,West,278,14.0,18.0,45,0.00,OVC,OVC,0.01,WeatherDisplay:10.37,2013-01-12 02:54:00,
2013-01-11 21:00:00,56.3,32.3,29.73,West,280,16.0,24.0,40,0.00,OVC,OVC,0.01,WeatherDisplay:10.37,2013-01-12 03:00:00,
2013-01-11 21:06:00,56.3,30.3,29.73,West,280,17.0,21.0,37,0.00,BKN,BKN,0.01,WeatherDisplay:10.37,2013-01-12 03:06:00,
2013-01-11 21:12:00,55.5,30.2,29.74,West,280,10.0,20.0,38,0.00,BKN,BKN,0.01,WeatherDisplay:10.37,2013-01-12 03:12:00,
2013-01-11 21:18:00,55.4,28.2,29.74,WNW,282,21.0,25.0,35,0.00,BKN,BKN,0.01,WeatherDisplay:10.37,2013-01-12 03:18:00,
2013-01-11 21:24:00,54.8,28.4,29.74,WNW,287,15.0,19.0,36,0.00,BKN,BKN,0.01,WeatherDisplay:10.37,2013-01-12 03:24:00,
2013-01-11 21:30:00,53.8,28.1,29.75,WNW,296,12.0,17.0,37,0.00,BKN,BKN,0.01,WeatherDisplay:10.37,2013-01-12 03:30:00,
2013-01-11 21:36:00,53.4,25.0,29.75,WNW,290,16.0,19.0,33,0.00,BKN,BKN,0.01,WeatherDisplay:10.37,2013-01-12 03:36:00,
2013-01-11 21:42:00,53.2,24.8,29.75,West,278,13.0,13.0,33,0.00,BKN,BKN,0.01,WeatherDisplay:10.37,2013-01-12 03:42:00,
2013-01-11 21:48:00,52.5,24.9,29.75,WNW,284,15.0,20.0,34,0.00,BKN,BKN,0.01,WeatherDisplay:10.37,2013-01-12 03:48:00,
2013-01-11 21:54:00,51.8,24.3,29.76,WNW,290,16.0,21.0,34,0.00,BKN,BKN,0.01,WeatherDisplay:10.37,2013-01-12 03:54:00,
2013-01-11 22:00:00,51.1,24.4,29.76,West,279,13.0,15.0,35,0.00,BKN,BKN,0.01,WeatherDisplay:10.37,2013-01-12 04:00:00,
2013-01-11 22:06:00,50.4,25.1,29.78,NW,304,10.0,17.0,37,0.00,BKN,BKN,0.01,WeatherDisplay:10.37,2013-01-12 04:06:00,
2013-01-11 22:12:00,49.5,24.3,29.78,NW,305,15.0,24.0,37,0.00,BKN,BKN,0.01,WeatherDisplay:10.37,2013-01-12 04:12:00,
2013-01-11 22:18:00,49.1,25.2,29.78,WNW,297,18.0,18.0,39,0.00,BKN,BKN,0.01,WeatherDisplay:10.37,2013-01-12 04:18:00,
2013-01-11 22:24:00,47.6,26.2,29.78,WNW,293,13.0,16.0,43,0.00,BKN,BKN,0.01,WeatherDisplay:10.37,2013-01-12 04:24:00,
2013-01-11 22:30:00,47.1,26.8,29.79,WNW,303,13.0,18.0,45,0.00,BKN,BKN,0.01,WeatherDisplay:10.37,2013-01-12 04:30:00,
2013-01-11 22:36:00,46.4,29.8,29.79,NW,304,17.0,26.0,52,0.00,BKN,BKN,0.01,WeatherDisplay:10.37,2013-01-12 04:36:00,
2013-01-11 22:42:00,45.5,31.1,29.82,NW,309,20.0,21.0,57,0.00,BKN,BKN,0.01,WeatherDisplay:10.37,2013-01-12 04:42:00,
2013-01-11 22:48:00,44.6,32.0,29.82,NW,306,13.0,23.0,61,0.00,BKN,BKN,0.01,WeatherDisplay:10.37,2013-01-12 04:48:00,
2013-01-11 22:54:00,43.9,32.9,29.83,WNW,300,12.0,14.0,65,0.00,BKN,BKN,0.01,WeatherDisplay:10.37,2013-01-12 04:54:00,
2013-01-11 23:06:00,42.8,32.6,29.84,WNW,303,8.0,12.0,67,0.00,SCT,SCT,0.01,WeatherDisplay:10.37,2013-01-12 05:06:00,
2013-01-11 23:09:00,42.4,32.6,29.84,NW,308,6.0,7.0,68,0.00,SCT,SCT,0.01,WeatherDisplay:10.37,2013-01-12 05:09:00,
2013-01-11 23:12:00,42.3,32.5,29.84,NW,320,6.0,9.0,68,0.00,SCT,SCT,0.01,WeatherDisplay:10.37,2013-01-12 05:12:00,
2013-01-11 23:15:00,42.1,32.7,29.83,NW,320,8.0,13.0,69,0.00,SCT,SCT,0.01,WeatherDisplay:10.37,2013-01-12 05:15:00,
2013-01-11 23:21:00,41.6,32.5,29.83,WNW,296,7.0,9.0,70,0.00,SCT,SCT,0.01,WeatherDisplay:10.37,2013-01-12 05:21:00,
2013-01-11 23:27:00,41.2,32.9,29.84,WNW,302,7.0,9.0,72,0.00,SCT,SCT,0.01,WeatherDisplay:10.37,2013-01-12 05:27:00,
2013-01-11 23:33:00,40.8,32.5,29.84,NW,314,5.0,10.0,72,0.00,SCT,SCT,0.01,WeatherDisplay:10.37,2013-01-12 05:33:00,
2013-01-11 23:39:00,40.5,32.5,29.84,NW,322,7.0,12.0,73,0.00,SCT,SCT,0.01,WeatherDisplay:10.37,2013-01-12 05:39:00,
2013-01-11 23:45:00,40.1,32.8,29.84,NNW,327,5.0,8.0,75,0.00,SCT,SCT,0.01,WeatherDisplay:10.37,2013-01-12 05:45:00,
2013-01-11 23:51:00,39.7,32.4,29.86,NW,323,3.0,12.0,75,0.00,SCT,SCT,0.01,WeatherDisplay:10.37,2013-01-12 05:51:00,
2013-01-11 23:57:00,39.6,32.7,29.86,NW,307,5.0,7.0,76,0.00,SCT,SCT,0.01,WeatherDisplay:10.37,2013-01-12 05:57:00,